< < Back
Terminal Aerodrome Forecast


Current Version              Previous Versions:   1  2  3  4  5  6  7  8  9  

Terminal Aerodrome Forecast

973
FTUS42 KGSP 110534
TAFGSP
TAF
KGSP 110534Z 1106/1206 26005KT P6SM FEW250
     FM111300 25006KT P6SM SCT250
     FM112100 22006KT P6SM SCT050
     FM120200 06003KT P6SM BKN060=

Latest METAR

234
SAUS70 KWBC 111700 RRA
MTRGSP
METAR KGSP 111653Z 10SM CLR 04/M07 A3018 RMK AO2 SLP225 T00391072


USA.gov is the U.S. government's official web portal to all federal, state and local government web resources and services.